createdAt,value
2018-07-20T00:00:16.341Z,1.60
2018-07-20T00:02:45.679Z,1.80
2018-07-20T00:05:15.009Z,2.00
2018-07-20T00:07:44.401Z,2.27
2018-07-20T00:10:13.723Z,2.10
2018-07-20T00:12:43.064Z,2.10
2018-07-20T00:15:12.371Z,2.20
2018-07-20T00:17:41.700Z,1.97
2018-07-20T00:20:11.011Z,2.63
2018-07-20T00:22:40.336Z,2.63
2018-07-20T00:25:09.675Z,2.10
2018-07-20T00:27:39.032Z,2.03
2018-07-20T00:30:08.373Z,2.13
2018-07-20T00:32:37.732Z,2.30
2018-07-20T00:35:07.084Z,2.70
2018-07-20T00:37:36.525Z,2.33
2018-07-20T00:40:06.024Z,2.13
2018-07-20T00:42:35.062Z,2.40
2018-07-20T00:45:04.431Z,2.00
2018-07-20T00:47:33.740Z,1.97
2018-07-20T00:50:03.091Z,2.20
2018-07-20T00:52:32.397Z,2.20
2018-07-20T00:55:01.700Z,2.60
2018-07-20T00:57:31.072Z,1.97
2018-07-20T01:00:00.374Z,2.27
2018-07-20T01:02:29.700Z,2.63
2018-07-20T01:04:59.028Z,2.20
2018-07-20T01:07:28.347Z,2.30
2018-07-20T01:09:57.687Z,2.33
2018-07-20T01:12:27.009Z,2.23
2018-07-20T01:14:56.332Z,2.17
2018-07-20T01:17:25.655Z,2.40
2018-07-20T01:19:54.986Z,2.50
2018-07-20T01:22:24.344Z,2.35
2018-07-20T01:24:53.707Z,2.30
2018-07-20T01:27:23.044Z,2.20
2018-07-20T01:29:52.367Z,2.30
2018-07-20T01:32:21.687Z,1.90
2018-07-20T01:34:51.088Z,2.60
2018-07-20T01:37:20.384Z,2.90
2018-07-20T01:39:49.743Z,2.83
2018-07-20T01:42:19.089Z,1.93
2018-07-20T01:44:48.432Z,2.50
2018-07-20T01:47:17.811Z,2.80
2018-07-20T01:49:47.161Z,2.90
2018-07-20T01:52:16.514Z,2.50
2018-07-20T01:54:45.926Z,2.50
2018-07-20T01:57:15.243Z,2.50
2018-07-20T01:59:44.597Z,2.57
2018-07-20T02:02:13.928Z,2.63
2018-07-20T02:04:43.252Z,2.57
2018-07-20T02:07:12.607Z,2.63
2018-07-20T02:09:41.919Z,2.80
2018-07-20T02:12:11.310Z,2.40
2018-07-20T02:14:40.716Z,2.57
2018-07-20T02:17:10.088Z,2.60
2018-07-20T02:19:39.428Z,2.77
2018-07-20T02:22:08.741Z,2.80
2018-07-20T02:24:38.087Z,2.60
2018-07-20T02:27:07.404Z,2.67
2018-07-20T02:29:36.873Z,2.77
2018-07-20T02:32:06.180Z,2.60
2018-07-20T02:34:35.495Z,2.40
2018-07-20T02:37:04.899Z,2.83
2018-07-20T02:39:34.216Z,3.07
2018-07-20T02:42:03.540Z,2.40
2018-07-20T02:44:32.900Z,3.00
2018-07-20T02:47:02.312Z,2.43
2018-07-20T02:49:31.666Z,2.93
2018-07-20T02:52:00.998Z,2.33
2018-07-20T02:54:30.325Z,2.60
2018-07-20T02:56:59.636Z,2.87
2018-07-20T02:59:28.996Z,2.80
2018-07-20T03:01:58.324Z,2.67
2018-07-20T03:04:27.664Z,2.37
2018-07-20T03:06:57.011Z,2.53
2018-07-20T03:09:26.352Z,2.80
2018-07-20T03:11:55.688Z,2.77
2018-07-20T03:14:25.002Z,3.10
2018-07-20T03:16:54.454Z,2.90
2018-07-20T03:19:23.760Z,2.50
2018-07-20T03:21:53.072Z,2.57
2018-07-20T03:24:22.400Z,2.83
2018-07-20T03:26:51.709Z,2.27
2018-07-20T03:29:21.045Z,3.03
2018-07-20T03:31:50.368Z,2.83
2018-07-20T03:34:19.681Z,3.00
2018-07-20T03:36:49.172Z,2.70
2018-07-20T03:39:18.480Z,2.80
2018-07-20T03:41:47.800Z,2.40
2018-07-20T03:44:17.224Z,2.90
2018-07-20T03:46:46.609Z,2.63
2018-07-20T03:49:15.963Z,2.40
2018-07-20T03:51:45.272Z,3.57
2018-07-20T03:54:14.679Z,3.77
2018-07-20T03:56:43.996Z,2.93
2018-07-20T03:59:13.311Z,2.73
2018-07-20T04:01:42.624Z,2.80
2018-07-20T04:04:11.982Z,2.87
2018-07-20T04:06:42.536Z,2.47
2018-07-20T04:09:12.216Z,2.57
2018-07-20T04:11:42.344Z,2.85
2018-07-20T04:14:11.668Z,3.70
2018-07-20T04:16:40.999Z,3.33
2018-07-20T04:19:10.345Z,2.47
2018-07-20T04:21:39.783Z,3.37
2018-07-20T04:24:09.113Z,2.80
2018-07-20T04:26:38.421Z,3.03
2018-07-20T04:29:07.732Z,3.10
2018-07-20T04:31:37.060Z,3.10
2018-07-20T04:34:06.432Z,2.70
2018-07-20T04:36:35.748Z,3.00
2018-07-20T04:39:10.007Z,2.67
2018-07-20T04:41:39.355Z,2.80
2018-07-20T04:44:08.672Z,2.40
2018-07-20T04:46:38.181Z,2.87
2018-07-20T04:49:07.881Z,2.20
2018-07-20T04:51:37.256Z,3.27
2018-07-20T04:54:06.615Z,2.93
2018-07-20T04:56:35.926Z,2.83
2018-07-20T04:59:05.292Z,3.30
2018-07-20T05:01:34.613Z,2.77
2018-07-20T05:04:03.923Z,3.20
2018-07-20T05:06:33.253Z,3.50
2018-07-20T05:09:02.759Z,3.00
2018-07-20T05:11:32.157Z,4.30
2018-07-20T05:14:01.397Z,3.43
2018-07-20T05:16:30.708Z,3.77
2018-07-20T05:19:00.044Z,3.40
2018-07-20T05:21:29.376Z,3.30
2018-07-20T05:23:58.768Z,3.00
2018-07-20T05:26:28.083Z,3.37
2018-07-20T05:28:57.423Z,3.20
2018-07-20T05:31:26.771Z,3.37
2018-07-20T05:33:56.128Z,3.20
2018-07-20T05:36:25.479Z,3.00
2018-07-20T05:38:54.840Z,3.17
2018-07-20T05:41:24.222Z,2.70
2018-07-20T05:43:53.639Z,3.57
2018-07-20T05:46:22.871Z,3.30
2018-07-20T05:48:52.219Z,3.40
2018-07-20T05:51:21.556Z,3.03
2018-07-20T05:53:50.907Z,3.50
2018-07-20T05:56:20.207Z,3.20
2018-07-20T05:58:49.566Z,2.80
2018-07-20T06:01:19.364Z,3.20
2018-07-20T06:03:48.777Z,2.80
2018-07-20T06:06:18.124Z,3.50
2018-07-20T06:08:47.599Z,3.33
2018-07-20T06:11:16.984Z,3.43
2018-07-20T06:13:46.791Z,2.90
2018-07-20T06:16:16.374Z,2.97
2018-07-20T06:18:45.717Z,3.03
2018-07-20T06:21:15.028Z,3.30
2018-07-20T06:23:44.384Z,2.73
2018-07-20T06:26:13.717Z,3.03
2018-07-20T06:28:43.043Z,3.00
2018-07-20T06:31:12.400Z,3.00
2018-07-20T06:33:41.743Z,3.10
2018-07-20T06:36:11.069Z,2.70
2018-07-20T06:38:40.393Z,3.10
2018-07-20T06:41:09.793Z,2.73
2018-07-20T06:43:39.125Z,2.40
2018-07-20T06:46:08.715Z,2.67
2018-07-20T06:48:38.055Z,3.13
2018-07-20T06:51:07.475Z,2.80
2018-07-20T06:53:36.856Z,3.17
2018-07-20T06:56:06.204Z,2.50
2018-07-20T06:58:35.624Z,2.73
2018-07-20T07:01:04.955Z,2.40
2018-07-20T07:03:34.324Z,2.70
2018-07-20T07:06:03.672Z,2.20
2018-07-20T07:08:33.000Z,2.93
2018-07-20T07:11:02.324Z,2.70
2018-07-20T07:13:31.656Z,2.20
2018-07-20T07:16:01.097Z,2.63
2018-07-20T07:18:30.417Z,2.30
2018-07-20T07:20:59.752Z,8.90
2018-07-20T07:23:29.068Z,3.10
2018-07-20T07:25:58.484Z,2.33
2018-07-20T07:28:27.891Z,2.70
2018-07-20T07:30:57.276Z,3.00
2018-07-20T07:33:26.832Z,1.90
2018-07-20T07:35:56.271Z,2.40
2018-07-20T07:38:25.743Z,2.20
2018-07-20T07:40:55.105Z,2.00
2018-07-20T07:43:24.453Z,1.90
2018-07-20T07:45:53.772Z,2.23
2018-07-20T07:48:23.072Z,2.30
2018-07-20T07:50:52.420Z,2.00
2018-07-20T07:53:21.739Z,2.03
2018-07-20T07:55:51.084Z,1.80
2018-07-20T07:58:20.424Z,1.90
2018-07-20T08:00:49.739Z,1.70
2018-07-20T08:03:19.065Z,1.50
2018-07-20T08:05:48.405Z,1.70
2018-07-20T08:08:17.757Z,1.60
2018-07-20T08:10:47.096Z,1.40
2018-07-20T08:13:16.421Z,1.43
2018-07-20T08:15:45.885Z,1.60
2018-07-20T08:18:15.176Z,1.73
2018-07-20T08:20:44.512Z,1.70
2018-07-20T08:23:13.853Z,2.70
2018-07-20T08:25:43.172Z,2.60
2018-07-20T08:28:12.564Z,1.73
2018-07-20T08:30:41.900Z,1.40
2018-07-20T08:33:11.239Z,1.70
2018-07-20T08:35:40.576Z,1.50
2018-07-20T08:38:09.936Z,1.60
2018-07-20T08:40:39.260Z,1.80
2018-07-20T08:43:08.330Z,1.33
2018-07-20T08:45:37.660Z,1.40
2018-07-20T08:48:07.019Z,0.97
2018-07-20T08:50:36.351Z,1.57
2018-07-20T08:53:05.957Z,1.55
2018-07-20T08:55:35.276Z,1.77
2018-07-20T08:58:04.619Z,1.90
2018-07-20T09:00:33.962Z,1.60
2018-07-20T09:03:03.285Z,1.60
2018-07-20T09:05:32.609Z,1.57
2018-07-20T09:08:01.985Z,2.47
2018-07-20T09:10:31.305Z,1.43
2018-07-20T09:13:00.643Z,1.53
2018-07-20T09:15:30.039Z,1.50
2018-07-20T09:17:59.406Z,1.80
2018-07-20T09:20:28.758Z,1.47
2018-07-20T09:22:58.121Z,1.40
2018-07-20T09:25:27.467Z,1.40
2018-07-20T09:27:56.785Z,1.53
2018-07-20T09:30:26.120Z,1.80
2018-07-20T09:32:55.437Z,1.23
2018-07-20T09:35:24.767Z,1.77
2018-07-20T09:37:54.214Z,1.50
2018-07-20T09:40:23.515Z,1.70
2018-07-20T09:42:52.858Z,1.50
2018-07-20T09:45:22.160Z,1.93
2018-07-20T09:47:51.493Z,1.70
2018-07-20T09:50:20.844Z,1.07
2018-07-20T09:52:50.221Z,1.50
2018-07-20T09:55:19.554Z,1.27
2018-07-20T09:57:48.871Z,1.40
2018-07-20T10:00:23.074Z,1.40
2018-07-20T10:02:52.456Z,1.47
2018-07-20T10:05:21.804Z,1.73
2018-07-20T10:07:51.134Z,1.83
2018-07-20T10:10:20.456Z,1.63
2018-07-20T10:12:49.818Z,1.53
2018-07-20T10:15:19.144Z,2.10
2018-07-20T10:17:48.492Z,2.13
2018-07-20T10:20:17.804Z,1.50
2018-07-20T10:22:47.131Z,1.47
2018-07-20T10:25:16.459Z,1.70
2018-07-20T10:27:45.835Z,1.20
2018-07-20T10:30:15.123Z,1.50
2018-07-20T10:32:44.432Z,1.50
2018-07-20T10:35:13.486Z,1.20
2018-07-20T10:37:42.808Z,1.50
2018-07-20T10:40:12.139Z,1.37
2018-07-20T10:42:41.471Z,1.17
2018-07-20T10:45:11.267Z,1.60
2018-07-20T10:47:40.583Z,1.80
2018-07-20T10:50:09.924Z,1.87
2018-07-20T10:52:39.262Z,1.47
2018-07-20T10:55:08.588Z,1.13
2018-07-20T10:57:38.799Z,1.37
2018-07-20T11:00:08.147Z,1.60
2018-07-20T11:02:37.497Z,1.63
2018-07-20T11:05:06.867Z,1.40
2018-07-20T11:07:36.183Z,1.60
2018-07-20T11:10:05.807Z,1.20
2018-07-20T11:12:35.130Z,1.50
2018-07-20T11:15:05.174Z,1.70
2018-07-20T11:17:34.520Z,1.60
2018-07-20T11:20:04.019Z,1.40
2018-07-20T11:22:33.387Z,1.40
2018-07-20T11:25:02.721Z,1.30
2018-07-20T11:27:32.138Z,1.73
2018-07-20T11:30:01.444Z,1.30
2018-07-20T11:32:30.840Z,1.47
2018-07-20T11:35:00.210Z,1.30
2018-07-20T11:37:29.540Z,1.53
2018-07-20T11:39:58.948Z,1.40
2018-07-20T11:42:28.339Z,1.80
2018-07-20T11:44:57.686Z,1.50
2018-07-20T11:47:27.015Z,1.40
2018-07-20T11:49:56.323Z,1.60
2018-07-20T11:52:25.676Z,1.70
2018-07-20T11:54:55.063Z,1.70
2018-07-20T11:57:24.392Z,1.80
2018-07-20T11:59:53.704Z,1.60
2018-07-20T12:02:23.029Z,1.57
2018-07-20T12:04:52.352Z,1.57
2018-07-20T12:07:21.721Z,1.60
2018-07-20T12:09:51.043Z,1.50
2018-07-20T12:12:20.361Z,1.73
2018-07-20T12:14:49.688Z,1.93
2018-07-20T12:17:19.035Z,1.77
2018-07-20T12:19:48.348Z,1.83
2018-07-20T12:22:17.869Z,1.57
2018-07-20T12:24:47.205Z,1.83
2018-07-20T12:27:16.531Z,1.50
2018-07-20T12:29:46.103Z,1.47
2018-07-20T12:32:15.439Z,2.10
2018-07-20T12:34:44.744Z,1.83
2018-07-20T12:37:14.082Z,1.80
2018-07-20T12:39:43.431Z,1.73
2018-07-20T12:42:12.765Z,2.00
2018-07-20T12:44:42.089Z,1.60
2018-07-20T12:47:11.512Z,1.60
2018-07-20T12:49:40.837Z,1.70
2018-07-20T12:52:10.186Z,1.90
2018-07-20T12:54:39.540Z,2.03
2018-07-20T12:57:09.311Z,1.73
2018-07-20T12:59:38.648Z,2.10
2018-07-20T13:02:08.267Z,1.63
2018-07-20T13:04:37.592Z,1.60
2018-07-20T13:07:06.663Z,1.83
2018-07-20T13:09:36.020Z,1.80
2018-07-20T13:12:05.501Z,1.83
2018-07-20T13:14:34.696Z,1.73
2018-07-20T13:17:04.080Z,1.93
2018-07-20T13:19:33.570Z,3.00
2018-07-20T13:22:02.903Z,1.70
2018-07-20T13:24:31.967Z,1.70
2018-07-20T13:27:01.460Z,2.10
2018-07-20T13:29:30.815Z,1.93
2018-07-20T13:32:00.215Z,2.00
2018-07-20T13:34:29.539Z,2.00
2018-07-20T13:36:58.860Z,1.93
2018-07-20T13:39:28.203Z,1.70
2018-07-20T13:41:57.576Z,1.50
2018-07-20T13:44:26.901Z,1.63
2018-07-20T13:46:56.273Z,2.00
2018-07-20T13:49:26.591Z,1.80
2018-07-20T13:51:55.968Z,1.70
2018-07-20T13:54:25.279Z,2.17
2018-07-20T13:56:54.634Z,2.20
2018-07-20T13:59:24.055Z,1.53
2018-07-20T14:01:53.383Z,1.57
2018-07-20T14:04:22.713Z,1.60
2018-07-20T14:06:52.074Z,1.50
2018-07-20T14:09:21.383Z,1.57
2018-07-20T14:11:50.717Z,2.00
2018-07-20T14:14:20.156Z,2.20
2018-07-20T14:16:49.707Z,1.67
2018-07-20T14:19:18.992Z,1.70
2018-07-20T14:21:48.594Z,1.83
2018-07-20T14:24:17.901Z,1.70
2018-07-20T14:26:47.392Z,2.07
2018-07-20T14:29:16.708Z,1.67
2018-07-20T14:31:46.101Z,1.40
2018-07-20T14:34:22.100Z,1.80
2018-07-20T14:36:51.441Z,2.20
2018-07-20T14:39:20.765Z,1.70
2018-07-20T14:41:50.308Z,2.37
2018-07-20T14:44:19.637Z,2.23
2018-07-20T14:46:49.162Z,1.90
2018-07-20T14:49:18.499Z,1.37
2018-07-20T14:51:47.859Z,1.77
2018-07-20T14:54:17.323Z,1.60
2018-07-20T14:56:46.741Z,1.73
2018-07-20T14:59:16.074Z,1.77
2018-07-20T15:01:45.435Z,1.60
2018-07-20T15:04:14.748Z,1.73
2018-07-20T15:06:44.089Z,1.57
2018-07-20T15:09:13.522Z,1.63
2018-07-20T15:11:42.871Z,1.80
2018-07-20T15:14:12.175Z,1.80
2018-07-20T15:16:41.563Z,1.63
2018-07-20T15:19:10.876Z,1.60
2018-07-20T15:21:39.934Z,1.73
2018-07-20T15:24:09.283Z,1.67
2018-07-20T15:26:38.608Z,1.63
2018-07-20T15:29:07.924Z,1.80
2018-07-20T15:31:37.263Z,1.53
2018-07-20T15:34:06.664Z,1.60
2018-07-20T15:36:36.005Z,1.30
2018-07-20T15:39:09.399Z,1.50
2018-07-20T15:41:38.739Z,1.67
2018-07-20T15:44:08.108Z,2.03
2018-07-20T15:46:37.531Z,1.97
2018-07-20T15:49:06.845Z,1.53
2018-07-20T15:53:35.050Z,1.70
2018-07-20T15:54:05.607Z,1.63
2018-07-20T15:56:34.925Z,1.80
2018-07-20T15:59:04.317Z,1.60
2018-07-20T16:01:33.656Z,1.90
2018-07-20T16:04:02.984Z,1.60
2018-07-20T16:06:32.356Z,1.50
2018-07-20T16:09:01.696Z,1.70
2018-07-20T16:11:31.089Z,1.57
2018-07-20T16:14:00.409Z,1.47
2018-07-20T16:16:29.740Z,1.60
2018-07-20T16:18:59.051Z,1.70
2018-07-20T16:21:28.400Z,2.07
2018-07-20T16:23:57.744Z,1.87
2018-07-20T16:26:27.060Z,1.60
2018-07-20T16:28:56.404Z,1.60
2018-07-20T16:31:25.721Z,1.63
2018-07-20T16:33:55.060Z,1.60
2018-07-20T16:36:24.457Z,1.73
2018-07-20T16:38:53.800Z,1.67
2018-07-20T16:41:23.150Z,1.73
2018-07-20T16:43:52.479Z,1.67
2018-07-20T16:46:21.815Z,2.00
2018-07-20T16:48:51.156Z,1.53
2018-07-20T16:51:20.549Z,2.20
2018-07-20T16:53:49.853Z,2.00
2018-07-20T16:56:19.168Z,1.70
2018-07-20T16:58:48.540Z,1.70
2018-07-20T17:01:17.849Z,1.47
2018-07-20T17:03:47.169Z,1.40
2018-07-20T17:06:16.508Z,1.53
2018-07-20T17:08:45.842Z,1.80
2018-07-20T17:11:15.159Z,1.90
2018-07-20T17:13:44.553Z,2.37
2018-07-20T17:16:13.905Z,2.13
2018-07-20T17:18:43.264Z,1.67
2018-07-20T17:21:12.578Z,1.70
2018-07-20T17:23:41.897Z,1.53
2018-07-20T17:26:11.244Z,2.10
2018-07-20T17:28:40.596Z,1.98
2018-07-20T17:31:09.900Z,1.63
2018-07-20T17:33:39.281Z,1.83
2018-07-20T17:36:08.590Z,1.90
2018-07-20T17:38:37.917Z,1.70
2018-07-20T17:41:07.558Z,1.83
2018-07-20T17:43:36.877Z,1.97
2018-07-20T17:46:06.620Z,1.80
2018-07-20T17:48:36.036Z,1.50
2018-07-20T17:51:05.412Z,1.40
2018-07-20T17:53:34.828Z,1.50
2018-07-20T17:56:04.200Z,1.37
2018-07-20T17:58:33.578Z,1.47
2018-07-20T18:01:02.748Z,1.60
2018-07-20T18:03:32.056Z,1.50
2018-07-20T18:06:01.422Z,1.57
2018-07-20T18:08:30.797Z,1.60
2018-07-20T18:11:00.135Z,1.80
2018-07-20T18:13:29.757Z,2.33
2018-07-20T18:15:59.076Z,1.60
2018-07-20T18:18:28.427Z,1.90
2018-07-20T18:20:57.769Z,2.27
2018-07-20T18:23:27.177Z,1.80
2018-07-20T18:25:56.498Z,2.10
2018-07-20T18:28:25.848Z,2.60
2018-07-20T18:30:55.179Z,2.77
2018-07-20T18:33:24.529Z,2.17
2018-07-20T18:35:53.881Z,2.37
2018-07-20T18:38:23.201Z,2.23
2018-07-20T18:40:52.274Z,2.17
2018-07-20T18:43:21.628Z,2.53
2018-07-20T18:45:50.956Z,1.77
2018-07-20T18:48:20.259Z,2.50
2018-07-20T18:50:49.580Z,1.70
2018-07-20T18:53:19.002Z,2.70
2018-07-20T18:55:48.329Z,3.47
2018-07-20T18:58:17.675Z,2.50
2018-07-20T19:00:47.049Z,2.47
2018-07-20T19:03:16.495Z,2.00
2018-07-20T19:05:45.840Z,2.07
2018-07-20T19:08:15.175Z,2.30
2018-07-20T19:10:44.485Z,1.87
2018-07-20T19:13:13.820Z,2.00
2018-07-20T19:15:43.148Z,2.40
2018-07-20T19:18:12.465Z,2.50
2018-07-20T19:20:41.827Z,2.60
2018-07-20T19:23:11.164Z,2.20
2018-07-20T19:25:40.484Z,2.30
2018-07-20T19:28:09.827Z,2.50
2018-07-20T19:30:39.135Z,2.30
2018-07-20T19:33:08.569Z,2.60
2018-07-20T19:35:37.877Z,2.10
2018-07-20T19:38:07.211Z,2.40
2018-07-20T19:40:36.516Z,2.90
2018-07-20T19:43:05.867Z,2.53
2018-07-20T19:45:35.216Z,3.17
2018-07-20T19:48:04.759Z,2.40
2018-07-20T19:50:34.111Z,2.60
2018-07-20T19:53:03.480Z,2.40
2018-07-20T19:55:32.810Z,2.20
2018-07-20T19:58:02.112Z,2.53
2018-07-20T20:00:31.495Z,2.40
2018-07-20T20:03:00.877Z,2.60
2018-07-20T20:05:30.191Z,2.13
2018-07-20T20:07:59.538Z,2.00
2018-07-20T20:10:28.862Z,2.60
2018-07-20T20:12:58.535Z,2.53
2018-07-20T20:15:27.936Z,1.97
2018-07-20T20:17:57.348Z,1.97
2018-07-20T20:20:26.737Z,2.40
2018-07-20T20:22:56.120Z,1.90
2018-07-20T20:25:25.443Z,2.03
2018-07-20T20:27:58.499Z,1.90
2018-07-20T20:30:27.875Z,2.37
2018-07-20T20:32:57.392Z,2.20
2018-07-20T20:35:26.752Z,2.37
2018-07-20T20:37:56.076Z,2.50
2018-07-20T20:40:25.419Z,2.00
2018-07-20T20:42:54.755Z,2.60
2018-07-20T20:45:24.085Z,2.27
2018-07-20T20:47:53.419Z,1.83
2018-07-20T20:50:22.743Z,2.57
2018-07-20T20:52:52.477Z,2.63
2018-07-20T20:55:21.949Z,2.53
2018-07-20T20:57:51.304Z,2.40
2018-07-20T21:00:20.629Z,2.37
2018-07-20T21:02:49.947Z,2.53
2018-07-20T21:05:19.353Z,2.57
2018-07-20T21:07:48.821Z,2.57
2018-07-20T21:10:18.168Z,2.33
2018-07-20T21:12:47.500Z,2.60
2018-07-20T21:15:16.807Z,2.30
2018-07-20T21:17:46.153Z,2.83
2018-07-20T21:20:15.483Z,2.73
2018-07-20T21:22:44.802Z,2.70
2018-07-20T21:25:14.139Z,3.23
2018-07-20T21:27:43.458Z,2.40
2018-07-20T21:30:12.845Z,3.17
2018-07-20T21:32:42.196Z,3.10
2018-07-20T21:35:11.504Z,2.40
2018-07-20T21:37:40.841Z,2.30
2018-07-20T21:40:10.156Z,2.40
2018-07-20T21:42:39.480Z,2.70
2018-07-20T21:45:08.827Z,3.10
2018-07-20T21:47:38.119Z,2.47
2018-07-20T21:50:07.440Z,2.30
2018-07-20T21:52:36.853Z,2.97
2018-07-20T21:55:06.219Z,2.50
2018-07-20T21:57:35.547Z,3.10
2018-07-20T22:00:07.052Z,3.10
2018-07-20T22:02:36.388Z,2.87
2018-07-20T22:05:05.720Z,2.90
2018-07-20T22:07:35.073Z,3.03
2018-07-20T22:10:04.456Z,3.10
2018-07-20T22:12:33.999Z,2.80
2018-07-20T22:15:03.371Z,2.70
2018-07-20T22:17:32.699Z,2.90
2018-07-20T22:20:02.044Z,2.40
2018-07-20T22:22:31.367Z,2.60
2018-07-20T22:25:00.760Z,3.27
2018-07-20T22:27:30.099Z,2.90
2018-07-20T22:29:59.497Z,3.00
2018-07-20T22:32:28.764Z,2.93
2018-07-20T22:34:58.071Z,2.87
2018-07-20T22:37:27.396Z,3.00
2018-07-20T22:39:56.712Z,2.97
2018-07-20T22:42:26.034Z,2.67
2018-07-20T22:44:55.360Z,2.80
2018-07-20T22:47:24.668Z,2.90
2018-07-20T22:49:53.991Z,2.80
2018-07-20T22:52:23.298Z,2.90
2018-07-20T22:54:52.615Z,2.87
2018-07-20T22:57:21.953Z,2.70
2018-07-20T22:59:51.267Z,2.40
2018-07-20T23:02:20.617Z,2.80
2018-07-20T23:04:49.940Z,3.13
2018-07-20T23:07:19.260Z,2.93
2018-07-20T23:09:48.588Z,2.90
2018-07-20T23:12:17.949Z,3.10
2018-07-20T23:14:47.260Z,2.80
2018-07-20T23:17:16.575Z,2.60
2018-07-20T23:19:45.959Z,3.27
2018-07-20T23:22:15.278Z,2.87
2018-07-20T23:24:44.677Z,2.40
2018-07-20T23:27:14.013Z,2.70
2018-07-20T23:29:43.323Z,3.07
2018-07-20T23:32:13.520Z,2.43
2018-07-20T23:34:42.841Z,2.73
2018-07-20T23:37:12.159Z,3.73
2018-07-20T23:39:41.496Z,2.90
2018-07-20T23:42:10.818Z,3.37
2018-07-20T23:44:40.139Z,2.57
2018-07-20T23:47:09.572Z,3.13
2018-07-20T23:49:38.944Z,3.20
2018-07-20T23:52:08.261Z,2.90
2018-07-20T23:54:37.697Z,2.73
2018-07-20T23:57:06.997Z,2.80
2018-07-20T23:59:36.356Z,2.33
